EST,Max TemperatureF,Mean TemperatureF,Min TemperatureF,Max Dew PointF,MeanDew PointF,Min DewpointF,Max Humidity, Mean Humidity, Min Humidity, Max Sea Level PressureIn, Mean Sea Level PressureIn, Min Sea Level PressureIn, Max VisibilityMiles, Mean VisibilityMiles, Min VisibilityMiles, Max Wind SpeedMPH, Mean Wind SpeedMPH, Max Gust SpeedMPH,PrecipitationIn, CloudCover, Events, WindDirDegrees
2013-2-1,14,11,8,8,5,2,81,75,66,30.07,30.04,29.92,10,6,1,16,11,21,0.00,8,Snow,253
2013-2-2,16,8,-1,8,2,-6,83,73,55,30.02,29.96,29.93,10,8,2,10,5,16,0.00,7,Snow,308
2013-2-3,16,9,2,10,6,-4,81,77,65,29.92,29.83,29.75,10,5,1,17,4,22,0.00,8,Snow,248
2013-2-4,18,7,-6,8,3,-13,84,72,51,29.90,29.87,29.83,10,8,1,8,1,,0.00,5,Snow,299
2013-2-5,23,7,-9,19,5,-17,84,77,65,29.92,29.77,29.65,10,8,1,14,4,20,0.00,6,Snow,250
2013-2-6,26,11,-4,21,9,-9,88,75,60,30.19,30.11,29.93,10,8,1,13,4,17,0.00,5,Snow,207
2013-2-7,27,26,24,25,23,20,90,87,81,30.13,30.04,29.93,10,3,0,12,7,,0.00,8,Snow,105
2013-2-8,27,13,-1,24,15,-6,89,82,72,30.30,30.13,29.93,10,8,1,13,9,20,0.00,6,Snow,351
2013-2-9,28,10,-9,15,3,-15,85,72,52,30.34,30.26,30.14,10,9,0,10,2,,0.00,2,Fog,154
2013-2-10,37,24,11,35,21,8,90,83,70,30.14,29.88,29.48,10,9,2,15,7,23,0.00,5,Rain-Snow,121
2013-2-11,41,35,28,38,31,24,92,86,77,29.76,29.48,29.37,10,5,1,30,15,37,0.00,8,Rain-Snow,230
2013-2-12,28,24,21,23,19,15,84,80,74,29.93,29.87,29.76,10,8,2,16,10,23,0.00,8,Snow,253
2013-2-13,36,29,22,30,25,18,88,83,74,29.81,29.70,29.64,10,8,2,16,8,20,0.00,8,,215
2013-2-14,36,28,21,33,29,16,92,88,80,29.82,29.63,29.52,10,3,0,21,7,36,0.00,8,Snow,221
2013-2-15,21,16,11,16,13,9,88,77,59,30.06,29.97,29.83,10,8,1,15,9,20,0.00,8,Snow,291
2013-2-16,22,9,-5,12,6,-10,87,74,48,30.05,29.99,29.95,10,8,2,10,2,,0.00,5,Snow,348
2013-2-17,21,4,-14,9,-4,-22,82,69,53,30.11,30.07,30.03,10,9,1,12,1,,0.00,4,Snow,203
2013-2-18,41,28,16,38,19,7,90,66,53,30.03,29.74,29.38,10,9,2,17,10,25,0.00,5,Rain,149
2013-2-19,41,27,13,38,21,6,91,81,73,29.84,29.50,29.22,10,4,0,22,15,33,0.00,8,Rain-Snow,265
2013-2-20,19,16,12,14,10,7,80,75,67,30.19,30.05,29.84,10,5,1,21,15,32,0.00,8,Snow,311
2013-2-21,23,20,16,14,12,8,86,74,57,30.33,30.26,30.18,10,10,2,15,9,23,0.00,4,Snow,29
2013-2-22,26,21,16,24,19,12,89,87,81,30.19,29.93,29.76,10,6,0,21,12,28,0.00,8,Snow,108
2013-2-23,28,26,24,26,24,21,91,85,74,29.81,29.76,29.72,10,4,1,16,9,21,0.00,8,Snow,223
2013-2-24,33,28,24,26,23,19,89,77,57,30.09,29.95,29.78,10,8,1,13,6,,0.00,8,Snow,285
2013-2-25,32,22,11,27,18,8,93,81,68,30.16,30.11,30.07,10,6,0,5,1,,0.00,6,Fog,168
2013-2-26,36,27,18,27,22,15,87,77,64,30.10,29.87,29.61,10,10,1,30,11,37,0.00,3,Snow,65
2013-2-27,36,34,31,32,29,26,90,86,79,29.62,29.56,29.53,10,6,1,18,11,26,0.00,8,Snow,35
2013-2-28,31,28,24,28,25,16,88,81,68,29.99,29.79,29.62,10,8,2,15,9,21,0.00,8,Snow,351